createdAt,value
2023-04-07T00:00:06.089Z,99046.55
2023-04-07T00:02:39.364Z,99047.70
2023-04-07T00:05:07.361Z,99049.12
2023-04-07T00:07:39.612Z,99046.26
2023-04-07T00:10:19.748Z,99050.21
2023-04-07T00:12:47.101Z,99052.16
2023-04-07T00:15:14.708Z,99046.25
2023-04-07T00:17:42.074Z,99051.91
2023-04-07T00:20:09.781Z,99054.27
2023-04-07T00:22:37.269Z,99053.66
2023-04-07T00:25:05.307Z,99055.95
2023-04-07T00:27:32.981Z,99061.49
2023-04-07T00:30:00.436Z,99061.98
2023-04-07T00:32:27.808Z,99064.65
2023-04-07T00:34:55.243Z,99062.83
2023-04-07T00:37:25.134Z,99064.39
2023-04-07T00:39:52.352Z,99067.07
2023-04-07T00:42:19.762Z,99069.97
2023-04-07T00:44:47.133Z,99073.58
2023-04-07T00:47:14.984Z,99072.83
2023-04-07T00:49:43.669Z,99071.24
2023-04-07T00:52:11.216Z,99072.53
2023-04-07T00:54:43.790Z,99074.30
2023-04-07T00:57:11.558Z,99074.43
2023-04-07T00:59:38.863Z,99074.61
2023-04-07T01:02:21.716Z,99072.59
2023-04-07T01:04:49.961Z,99075.14
2023-04-07T01:07:18.794Z,99079.59
2023-04-07T01:10:03.085Z,99085.09
2023-04-07T01:12:47.458Z,99081.02
2023-04-07T01:15:15.363Z,99085.98
2023-04-07T01:17:48.213Z,99085.73
2023-04-07T01:20:16.536Z,99080.13
2023-04-07T01:22:51.175Z,99082.92
2023-04-07T01:25:21.839Z,99081.22
2023-04-07T01:27:52.824Z,99081.45
2023-04-07T01:30:20.507Z,99084.72
2023-04-07T01:32:52.271Z,99081.60
2023-04-07T01:35:21.461Z,99087.65
2023-04-07T01:37:50.011Z,99090.00
2023-04-07T01:40:17.166Z,99092.92
2023-04-07T01:42:46.051Z,99094.52
2023-04-07T01:45:13.517Z,99096.69
2023-04-07T01:47:41.689Z,99101.20
2023-04-07T01:50:10.068Z,99101.47
2023-04-07T01:52:37.763Z,99100.08
2023-04-07T01:55:05.612Z,99100.36
2023-04-07T01:57:35.741Z,99086.38
2023-04-07T02:00:09.913Z,99087.84
2023-04-07T02:02:46.528Z,99092.02
2023-04-07T02:05:15.181Z,99088.74
2023-04-07T02:07:52.880Z,99086.88
2023-04-07T02:10:24.054Z,99090.21
2023-04-07T02:12:53.123Z,99093.78
2023-04-07T02:15:20.908Z,99091.08
2023-04-07T02:17:51.491Z,99088.21
2023-04-07T02:20:19.478Z,99085.70
2023-04-07T02:22:47.034Z,99082.96
2023-04-07T02:25:27.805Z,99080.55
2023-04-07T02:27:55.987Z,99079.89
2023-04-07T02:30:23.975Z,99077.63
2023-04-07T02:32:53.135Z,99070.78
2023-04-07T02:35:20.652Z,99069.26
2023-04-07T02:37:49.104Z,99068.09
2023-04-07T02:40:16.480Z,99061.68
2023-04-07T02:42:45.021Z,99059.09
2023-04-07T02:45:12.478Z,99057.46
2023-04-07T02:47:40.209Z,99052.08
2023-04-07T02:50:08.209Z,99044.73
2023-04-07T02:52:36.445Z,99043.15
2023-04-07T02:55:08.447Z,99042.00
2023-04-07T02:57:36.058Z,99041.48
2023-04-07T03:00:05.515Z,99047.54
2023-04-07T03:02:48.663Z,99046.34
2023-04-07T03:05:16.811Z,99048.49
2023-04-07T03:07:44.364Z,99054.50
2023-04-07T03:10:14.382Z,99057.21
2023-04-07T03:12:43.072Z,99057.86
2023-04-07T03:15:11.547Z,99061.30
2023-04-07T03:17:40.063Z,99064.92
2023-04-07T03:20:08.420Z,99061.54
2023-04-07T03:22:37.233Z,99062.42
2023-04-07T03:25:07.328Z,99061.04
2023-04-07T03:27:35.386Z,99065.12
2023-04-07T03:30:04.768Z,99067.64
2023-04-07T03:32:32.699Z,99065.66
2023-04-07T03:35:00.249Z,99067.10
2023-04-07T03:37:27.572Z,99075.42
2023-04-07T03:39:55.635Z,99080.50
2023-04-07T03:42:28.216Z,99082.60
2023-04-07T03:45:00.394Z,99085.86
2023-04-07T03:47:28.996Z,99089.73
2023-04-07T03:49:59.083Z,99091.78
2023-04-07T03:52:27.292Z,99095.87
2023-04-07T03:55:00.716Z,99097.77
2023-04-07T03:57:31.694Z,99102.30
2023-04-07T04:00:00.169Z,99107.36
2023-04-07T04:02:31.734Z,99109.08
2023-04-07T04:04:59.578Z,99111.05
2023-04-07T04:07:27.714Z,99107.20
2023-04-07T04:10:01.396Z,99107.13
2023-04-07T04:12:34.359Z,99107.60
2023-04-07T04:15:06.524Z,99110.11
2023-04-07T04:17:34.851Z,99109.26
2023-04-07T04:20:03.579Z,99108.32
2023-04-07T04:22:45.727Z,99108.50
2023-04-07T04:25:13.244Z,99113.90
2023-04-07T04:27:43.057Z,99114.42
2023-04-07T04:30:17.676Z,99112.17
2023-04-07T04:32:53.338Z,99117.54
2023-04-07T04:35:26.825Z,99117.55
2023-04-07T04:38:16.020Z,99120.80
2023-04-07T04:40:48.108Z,99123.67
2023-04-07T04:43:17.176Z,99126.04
2023-04-07T04:45:45.219Z,99128.59
2023-04-07T04:48:13.735Z,99128.58
2023-04-07T04:50:41.871Z,99136.05
2023-04-07T04:53:11.287Z,99142.10
2023-04-07T04:55:51.431Z,99145.95
2023-04-07T04:58:21.768Z,99147.90
2023-04-07T05:00:58.219Z,99153.41
2023-04-07T05:03:33.121Z,99158.27
2023-04-07T05:06:03.597Z,99164.60
2023-04-07T05:08:39.773Z,99164.23
2023-04-07T05:11:08.067Z,99167.23
2023-04-07T05:13:36.086Z,99166.47
2023-04-07T05:16:05.009Z,99166.61
2023-04-07T05:18:32.842Z,99171.65
2023-04-07T05:21:01.765Z,99174.56
2023-04-07T05:23:34.934Z,99182.35
2023-04-07T05:26:02.480Z,99183.61
2023-04-07T05:28:31.269Z,99179.59
2023-04-07T05:31:05.711Z,99185.30
2023-04-07T05:33:37.268Z,99181.18
2023-04-07T05:36:05.740Z,99187.09
2023-04-07T05:38:35.082Z,99190.73
2023-04-07T05:41:08.521Z,99201.77
2023-04-07T05:43:38.948Z,99202.42
2023-04-07T05:46:07.176Z,99204.88
2023-04-07T05:48:38.649Z,99206.48
2023-04-07T05:51:06.038Z,99211.30
2023-04-07T05:53:33.688Z,99221.86
2023-04-07T05:56:01.249Z,99227.27
2023-04-07T05:58:41.459Z,99234.23
2023-04-07T06:01:15.420Z,99235.13
2023-04-07T06:03:44.143Z,99237.38
2023-04-07T06:06:22.640Z,99233.80
2023-04-07T06:08:50.789Z,99236.76
2023-04-07T06:11:19.693Z,99234.23
2023-04-07T06:13:48.919Z,99233.59
2023-04-07T06:16:19.471Z,99234.11
2023-04-07T06:18:50.341Z,99233.54
2023-04-07T06:21:18.416Z,99238.73
2023-04-07T06:23:48.987Z,99243.56
2023-04-07T06:26:16.620Z,99238.19
2023-04-07T06:28:44.269Z,99239.25
2023-04-07T06:31:12.300Z,99235.71
2023-04-07T06:33:40.886Z,99237.57
2023-04-07T06:36:08.593Z,99238.78
2023-04-07T06:38:36.570Z,99234.52
2023-04-07T06:41:04.367Z,99228.69
2023-04-07T06:43:33.161Z,99226.08
2023-04-07T06:46:05.035Z,99228.71
2023-04-07T06:48:32.320Z,99234.17
2023-04-07T06:50:59.974Z,99238.05
2023-04-07T06:53:27.639Z,99242.77
2023-04-07T06:56:08.410Z,99233.41
2023-04-07T06:58:37.576Z,99228.98
2023-04-07T07:01:08.797Z,99232.10
2023-04-07T07:03:38.914Z,99225.86
2023-04-07T07:06:06.933Z,99223.87
2023-04-07T07:08:35.271Z,99227.02
2023-04-07T07:11:02.879Z,99229.08
2023-04-07T07:13:30.758Z,99225.12
2023-04-07T07:15:58.621Z,99225.92
2023-04-07T07:18:26.468Z,99227.20
2023-04-07T07:20:54.132Z,99225.55
2023-04-07T07:23:21.835Z,99226.94
2023-04-07T07:25:50.784Z,99224.91
2023-04-07T07:28:18.182Z,99228.79
2023-04-07T07:30:45.845Z,99228.02
2023-04-07T07:33:13.774Z,99232.56
2023-04-07T07:35:41.454Z,99226.20
2023-04-07T07:38:10.690Z,99227.36
2023-04-07T07:40:37.881Z,99228.88
2023-04-07T07:43:05.785Z,99221.84
2023-04-07T07:45:34.022Z,99222.86
2023-04-07T07:48:01.569Z,99217.09
2023-04-07T07:50:29.453Z,99224.05
2023-04-07T07:52:56.697Z,99219.28
2023-04-07T07:55:24.971Z,99214.62
2023-04-07T07:57:52.837Z,99213.23
2023-04-07T08:00:20.343Z,99212.74
2023-04-07T08:03:00.029Z,99208.91
2023-04-07T08:05:28.219Z,99209.28
2023-04-07T08:07:56.087Z,99210.41
2023-04-07T08:10:24.870Z,99219.64
2023-04-07T08:12:58.177Z,99227.57
2023-04-07T08:15:26.787Z,99230.54
2023-04-07T08:17:56.112Z,99227.80
2023-04-07T08:20:26.680Z,99233.45
2023-04-07T08:22:54.646Z,99239.36
2023-04-07T08:25:25.409Z,99241.06
2023-04-07T08:27:56.145Z,99240.86
2023-04-07T08:30:24.307Z,99238.27
2023-04-07T08:33:08.032Z,99234.30
2023-04-07T08:35:35.783Z,99233.45
2023-04-07T08:38:03.352Z,99230.65
2023-04-07T08:40:30.804Z,99223.79
2023-04-07T08:42:58.253Z,99224.96
2023-04-07T08:45:25.819Z,99224.07
2023-04-07T08:47:56.224Z,99217.29
2023-04-07T08:50:23.862Z,99215.27
2023-04-07T08:52:53.059Z,99212.87
2023-04-07T08:55:20.861Z,99209.09
2023-04-07T08:57:48.220Z,99198.45
2023-04-07T09:00:16.001Z,99191.17
2023-04-07T09:03:04.231Z,99176.55
2023-04-07T09:05:32.054Z,99165.34
2023-04-07T09:07:59.470Z,99160.66
2023-04-07T09:10:33.861Z,99160.46
2023-04-07T09:13:03.273Z,99163.11
2023-04-07T09:15:31.856Z,99165.73
2023-04-07T09:17:59.605Z,99166.02
2023-04-07T09:20:27.478Z,99166.23
2023-04-07T09:22:56.081Z,99166.87
2023-04-07T09:25:25.780Z,99162.45
2023-04-07T09:27:54.555Z,99156.69
2023-04-07T09:30:22.072Z,99155.10
2023-04-07T09:32:51.660Z,99151.60
2023-04-07T09:35:19.279Z,99150.29
2023-04-07T09:38:00.944Z,99145.04
2023-04-07T09:40:28.324Z,99145.73
2023-04-07T09:42:58.096Z,99142.05
2023-04-07T09:45:33.911Z,99138.13
2023-04-07T09:48:20.394Z,99137.39
2023-04-07T09:50:51.505Z,99144.09
2023-04-07T09:53:20.071Z,99146.14
2023-04-07T09:55:47.476Z,99144.23
2023-04-07T09:58:16.114Z,99144.20
2023-04-07T10:00:43.742Z,99134.26
2023-04-07T10:03:13.077Z,99129.90
2023-04-07T10:05:41.205Z,99123.19
2023-04-07T10:08:09.898Z,99122.05
2023-04-07T10:10:40.712Z,99116.19
2023-04-07T10:13:07.978Z,99112.04
2023-04-07T10:15:35.936Z,99107.15
2023-04-07T10:18:04.258Z,99101.59
2023-04-07T10:20:32.178Z,99095.73
2023-04-07T10:23:01.902Z,99089.35
2023-04-07T10:25:29.453Z,99081.06
2023-04-07T10:28:00.929Z,99089.85
2023-04-07T10:30:29.035Z,99082.77
2023-04-07T10:33:18.136Z,99073.80
2023-04-07T10:36:07.876Z,99071.38
2023-04-07T10:38:35.903Z,99068.23
2023-04-07T10:41:25.310Z,99061.52
2023-04-07T10:43:53.022Z,99054.63
2023-04-07T10:46:22.720Z,99053.48
2023-04-07T10:49:09.904Z,99054.23
2023-04-07T10:51:37.194Z,99053.27
2023-04-07T10:54:17.776Z,99056.25
2023-04-07T10:57:03.664Z,99056.14
2023-04-07T10:59:32.652Z,99050.67
2023-04-07T11:02:13.170Z,99049.43
2023-04-07T11:04:43.067Z,99049.66
2023-04-07T11:07:11.191Z,99039.02
2023-04-07T11:09:38.658Z,99029.89
2023-04-07T11:12:06.545Z,99025.23
2023-04-07T11:14:37.097Z,99024.71
2023-04-07T11:17:04.728Z,99019.56
2023-04-07T11:19:42.263Z,99014.61
2023-04-07T11:22:26.327Z,99008.12
2023-04-07T11:24:58.206Z,99005.23
2023-04-07T11:27:26.897Z,99002.70
2023-04-07T11:29:54.206Z,98992.56
2023-04-07T11:32:24.935Z,98992.85
2023-04-07T11:34:53.160Z,98992.02
2023-04-07T11:37:24.544Z,98992.38
2023-04-07T11:39:55.554Z,99005.05
2023-04-07T11:42:35.832Z,99029.83
2023-04-07T11:45:05.044Z,99051.95
2023-04-07T11:47:38.087Z,99067.95
2023-04-07T11:50:06.669Z,99090.15
2023-04-07T11:53:03.612Z,99111.70
2023-04-07T11:55:31.585Z,99143.41
2023-04-07T11:58:06.104Z,99161.70
2023-04-07T12:00:33.367Z,99205.01
2023-04-07T12:03:10.723Z,99219.27
2023-04-07T12:05:42.809Z,99225.74
2023-04-07T12:08:10.980Z,99225.28
2023-04-07T12:10:40.105Z,99216.30
2023-04-07T12:13:09.171Z,99214.27
2023-04-07T12:15:37.652Z,99228.03
2023-04-07T12:18:05.588Z,99239.11
2023-04-07T12:20:36.005Z,99253.79
2023-04-07T12:23:05.347Z,99273.17
2023-04-07T12:25:32.702Z,99277.59
2023-04-07T12:28:01.902Z,99271.89
2023-04-07T12:30:29.665Z,99269.81
2023-04-07T12:32:57.668Z,99265.41
2023-04-07T12:35:25.301Z,99262.80
2023-04-07T12:37:52.542Z,99267.81
2023-04-07T12:40:20.652Z,99266.61
2023-04-07T12:42:49.448Z,99265.99
2023-04-07T12:45:16.796Z,99263.84
2023-04-07T12:47:44.444Z,99266.17
2023-04-07T12:50:12.127Z,99272.84
2023-04-07T12:52:41.894Z,99266.89
2023-04-07T12:55:09.379Z,99269.95
2023-04-07T12:57:37.534Z,99288.84
2023-04-07T13:00:06.129Z,99306.21
2023-04-07T13:02:36.497Z,99327.13
2023-04-07T13:05:04.601Z,99329.98
2023-04-07T13:07:34.719Z,99332.11
2023-04-07T13:10:02.586Z,99335.05
2023-04-07T13:12:30.380Z,99339.88
2023-04-07T13:15:08.667Z,99348.96
2023-04-07T13:17:36.259Z,99351.93
2023-04-07T13:20:04.291Z,99354.09
2023-04-07T13:22:34.731Z,99362.36
2023-04-07T13:25:04.026Z,99365.23
2023-04-07T13:27:31.821Z,99364.19
2023-04-07T13:29:59.592Z,99357.45
2023-04-07T13:32:27.616Z,99354.72
2023-04-07T13:34:54.997Z,99351.08
2023-04-07T13:37:22.728Z,99350.02
2023-04-07T13:39:50.597Z,99343.27
2023-04-07T13:42:18.877Z,99336.67
2023-04-07T13:44:47.866Z,99330.48
2023-04-07T13:47:19.164Z,99328.16
2023-04-07T13:49:54.048Z,99322.80
2023-04-07T13:52:21.607Z,99318.96
2023-04-07T13:54:49.166Z,99316.16
2023-04-07T13:57:20.829Z,99312.11
2023-04-07T13:59:48.888Z,99312.44
2023-04-07T14:02:16.242Z,99315.18
2023-04-07T14:04:43.616Z,99313.41
2023-04-07T14:07:12.438Z,99319.37
2023-04-07T14:09:42.336Z,99325.29
2023-04-07T14:12:10.061Z,99329.08
2023-04-07T14:14:38.954Z,99327.84
2023-04-07T14:17:06.839Z,99329.54
2023-04-07T14:19:34.580Z,99321.55
2023-04-07T14:22:02.550Z,99318.70
2023-04-07T14:24:29.845Z,99311.27
2023-04-07T14:26:57.060Z,99303.07
2023-04-07T14:29:24.611Z,99299.56
2023-04-07T14:31:52.273Z,99297.52
2023-04-07T14:34:20.036Z,99289.48
2023-04-07T14:36:58.348Z,99288.80
2023-04-07T14:39:25.810Z,99284.94
2023-04-07T14:41:53.567Z,99277.48
2023-04-07T14:44:20.980Z,99274.48
2023-04-07T14:46:48.546Z,99265.86
2023-04-07T14:49:16.345Z,99258.69
2023-04-07T14:51:44.114Z,99255.80
2023-04-07T14:54:11.977Z,99246.44
2023-04-07T14:56:39.240Z,99239.40
2023-04-07T14:59:06.687Z,99231.80
2023-04-07T15:01:34.611Z,99223.70
2023-04-07T15:04:03.531Z,99223.17
2023-04-07T15:06:31.526Z,99219.19
2023-04-07T15:08:59.087Z,99216.36
2023-04-07T15:11:27.257Z,99213.36
2023-04-07T15:13:56.911Z,99208.80
2023-04-07T15:16:24.587Z,99207.70
2023-04-07T15:18:52.180Z,99201.22
2023-04-07T15:21:19.549Z,99194.27
2023-04-07T15:23:48.226Z,99184.74
2023-04-07T15:26:16.192Z,99178.23
2023-04-07T15:28:50.813Z,99174.48
2023-04-07T15:31:21.059Z,99171.64
2023-04-07T15:33:49.968Z,99166.87
2023-04-07T15:36:17.477Z,99157.96
2023-04-07T15:38:45.587Z,99151.58
2023-04-07T15:41:16.395Z,99148.17
2023-04-07T15:43:44.149Z,99138.65
2023-04-07T15:46:11.405Z,99134.77
2023-04-07T15:48:42.032Z,99132.40
2023-04-07T15:51:09.521Z,99128.80
2023-04-07T15:53:36.946Z,99121.08
2023-04-07T15:56:05.016Z,99113.19
2023-04-07T15:58:33.501Z,99107.79
2023-04-07T16:01:00.971Z,99102.98
2023-04-07T16:03:28.607Z,99092.71
2023-04-07T16:05:56.694Z,99085.64
2023-04-07T16:08:24.552Z,99077.15
2023-04-07T16:10:52.058Z,99073.22
2023-04-07T16:13:19.574Z,99063.83
2023-04-07T16:15:50.133Z,99065.20
2023-04-07T16:18:18.073Z,99058.48
2023-04-07T16:20:45.895Z,99053.27
2023-04-07T16:23:17.799Z,99049.20
2023-04-07T16:25:45.437Z,99045.25
2023-04-07T16:28:12.709Z,99043.58
2023-04-07T16:30:40.508Z,99036.75
2023-04-07T16:33:16.130Z,99029.27
2023-04-07T16:35:43.689Z,99027.45
2023-04-07T16:38:11.853Z,99024.05
2023-04-07T16:40:42.736Z,99015.30
2023-04-07T16:43:13.532Z,99011.88
2023-04-07T16:45:41.330Z,99013.98
2023-04-07T16:48:08.853Z,99008.41
2023-04-07T16:50:41.074Z,99005.58
2023-04-07T16:53:08.780Z,99003.45
2023-04-07T16:55:40.815Z,98995.39
2023-04-07T16:58:09.231Z,99000.57
2023-04-07T17:00:36.779Z,98994.18
2023-04-07T17:03:23.353Z,98988.73
2023-04-07T17:05:51.250Z,98984.27
2023-04-07T17:08:19.738Z,98982.41
2023-04-07T17:10:47.391Z,98981.14
2023-04-07T17:13:14.942Z,98980.39
2023-04-07T17:15:44.899Z,98982.06
2023-04-07T17:18:12.930Z,98974.59
2023-04-07T17:20:41.106Z,98973.75
2023-04-07T17:23:11.165Z,98968.52
2023-04-07T17:25:41.440Z,98967.35
2023-04-07T17:28:08.899Z,98966.23
2023-04-07T17:30:37.274Z,98967.23
2023-04-07T17:33:04.605Z,98967.70
2023-04-07T17:35:32.455Z,98969.92
2023-04-07T17:38:02.842Z,98970.61
2023-04-07T17:40:30.789Z,98970.08
2023-04-07T17:42:58.452Z,98967.40
2023-04-07T17:45:27.556Z,98971.78
2023-04-07T17:47:55.345Z,98973.28
2023-04-07T17:50:27.272Z,98970.48
2023-04-07T17:52:54.534Z,98969.17
2023-04-07T17:55:27.868Z,98966.09
2023-04-07T17:58:00.292Z,98963.73
2023-04-07T18:00:28.262Z,98957.48
2023-04-07T18:03:13.837Z,98962.11
2023-04-07T18:05:46.743Z,98962.06
2023-04-07T18:08:14.592Z,98964.24
2023-04-07T18:10:42.256Z,98964.36
2023-04-07T18:13:11.157Z,98963.24
2023-04-07T18:15:38.974Z,98962.48
2023-04-07T18:18:06.951Z,98965.96
2023-04-07T18:20:35.725Z,98964.62
2023-04-07T18:23:03.412Z,98966.13
2023-04-07T18:25:31.499Z,98964.23
2023-04-07T18:28:01.453Z,98961.33
2023-04-07T18:30:28.971Z,98965.71
2023-04-07T18:32:56.649Z,98961.71
2023-04-07T18:35:25.216Z,98958.44
2023-04-07T18:37:53.321Z,98955.73
2023-04-07T18:40:20.434Z,98957.14
2023-04-07T18:42:48.131Z,98957.67
2023-04-07T18:45:15.476Z,98952.98
2023-04-07T18:47:42.784Z,98949.27
2023-04-07T18:50:10.983Z,98939.95
2023-04-07T18:52:38.343Z,98930.19
2023-04-07T18:55:06.510Z,98922.48
2023-04-07T18:57:34.789Z,98913.91
2023-04-07T19:00:02.543Z,98903.13
2023-04-07T19:02:30.440Z,98898.79
2023-04-07T19:04:57.970Z,98886.40
2023-04-07T19:07:26.197Z,98877.04
2023-04-07T19:09:54.228Z,98865.06
2023-04-07T19:12:21.784Z,98860.30
2023-04-07T19:14:52.722Z,98855.34
2023-04-07T19:17:20.425Z,98846.91
2023-04-07T19:19:48.341Z,98842.09
2023-04-07T19:22:16.620Z,98831.88
2023-04-07T19:24:44.087Z,98823.86
2023-04-07T19:27:12.278Z,98822.33
2023-04-07T19:29:39.910Z,98812.41
2023-04-07T19:32:08.491Z,98800.85
2023-04-07T19:34:35.867Z,98797.86
2023-04-07T19:37:02.992Z,98792.15
2023-04-07T19:39:30.450Z,98787.88
2023-04-07T19:41:58.117Z,98781.27
2023-04-07T19:44:25.803Z,98777.95
2023-04-07T19:46:53.245Z,98768.92
2023-04-07T19:49:21.406Z,98764.39
2023-04-07T19:51:48.659Z,98757.26
2023-04-07T19:54:17.155Z,98750.20
2023-04-07T19:56:44.593Z,98748.57
2023-04-07T19:59:12.151Z,98744.75
2023-04-07T20:01:40.346Z,98748.55
2023-04-07T20:04:08.183Z,98747.02
2023-04-07T20:06:38.617Z,98746.56
2023-04-07T20:09:06.418Z,98748.77
2023-04-07T20:11:33.739Z,98752.45
2023-04-07T20:14:04.314Z,98755.35
2023-04-07T20:16:32.127Z,98753.77
2023-04-07T20:18:59.538Z,98750.90
2023-04-07T20:21:28.025Z,98738.77
2023-04-07T20:23:55.375Z,98735.33
2023-04-07T20:26:22.986Z,98735.86
2023-04-07T20:28:51.514Z,98735.70
2023-04-07T20:31:19.039Z,98736.99
2023-04-07T20:33:46.682Z,98738.55
2023-04-07T20:36:13.898Z,98744.31
2023-04-07T20:38:43.974Z,98748.90
2023-04-07T20:41:14.380Z,98746.06
2023-04-07T20:43:42.572Z,98747.76
2023-04-07T20:46:12.186Z,98752.08
2023-04-07T20:48:40.538Z,98750.92
2023-04-07T20:51:08.105Z,98745.69
2023-04-07T20:53:35.876Z,98742.30
2023-04-07T20:56:04.347Z,98742.50
2023-04-07T20:58:31.657Z,98736.05
2023-04-07T21:01:00.744Z,98736.01
2023-04-07T21:03:30.342Z,98735.06
2023-04-07T21:05:58.175Z,98738.54
2023-04-07T21:08:30.235Z,98738.91
2023-04-07T21:10:57.793Z,98740.68
2023-04-07T21:13:26.885Z,98743.92
2023-04-07T21:15:54.494Z,98744.63
2023-04-07T21:18:22.306Z,98740.23
2023-04-07T21:20:50.066Z,98736.41
2023-04-07T21:23:17.527Z,98737.01
2023-04-07T21:25:45.526Z,98734.41
2023-04-07T21:28:13.257Z,98730.83
2023-04-07T21:30:42.668Z,98728.12
2023-04-07T21:33:10.755Z,98732.44
2023-04-07T21:35:38.617Z,98728.55
2023-04-07T21:38:06.366Z,98731.12
2023-04-07T21:40:36.397Z,98728.89
2023-04-07T21:43:03.564Z,98726.88
2023-04-07T21:45:33.994Z,98726.42
2023-04-07T21:48:01.604Z,98730.69
2023-04-07T21:50:30.094Z,98726.65
2023-04-07T21:52:57.240Z,98727.50
2023-04-07T21:55:24.801Z,98724.27
2023-04-07T21:57:53.466Z,98721.54
2023-04-07T22:00:22.002Z,98720.17
2023-04-07T22:02:57.753Z,98717.17
2023-04-07T22:05:25.278Z,98716.33
2023-04-07T22:07:53.656Z,98716.39
2023-04-07T22:10:21.426Z,98716.34
2023-04-07T22:12:49.934Z,98719.09
2023-04-07T22:15:17.488Z,98714.08
2023-04-07T22:17:44.986Z,98714.34
2023-04-07T22:20:12.291Z,98715.40
2023-04-07T22:22:40.780Z,98711.36
2023-04-07T22:25:08.322Z,98711.32
2023-04-07T22:27:35.459Z,98707.83
2023-04-07T22:30:03.437Z,98699.73
2023-04-07T22:32:31.258Z,98701.89
2023-04-07T22:34:58.766Z,98695.84
2023-04-07T22:37:25.897Z,98693.82
2023-04-07T22:39:54.107Z,98698.17
2023-04-07T22:42:21.734Z,98698.05
2023-04-07T22:44:50.141Z,98694.29
2023-04-07T22:47:17.807Z,98696.23
2023-04-07T22:49:45.231Z,98692.15
2023-04-07T22:52:12.588Z,98684.98
2023-04-07T22:54:40.069Z,98680.73
2023-04-07T22:57:08.316Z,98671.23
2023-04-07T22:59:36.694Z,98674.77
2023-04-07T23:02:04.860Z,98673.34
2023-04-07T23:04:32.632Z,98673.04
2023-04-07T23:07:00.117Z,98674.92
2023-04-07T23:09:27.446Z,98675.66
2023-04-07T23:11:56.352Z,98670.45
2023-04-07T23:14:23.583Z,98675.20
2023-04-07T23:16:55.492Z,98675.77
2023-04-07T23:19:23.730Z,98677.34
2023-04-07T23:21:51.891Z,98681.77
2023-04-07T23:24:19.451Z,98679.66
2023-04-07T23:26:47.216Z,98677.78
2023-04-07T23:29:19.072Z,98675.27
2023-04-07T23:31:46.801Z,98676.26
2023-04-07T23:34:14.190Z,98676.50
2023-04-07T23:36:45.247Z,98673.36
2023-04-07T23:39:13.303Z,98674.88
2023-04-07T23:41:40.573Z,98670.88
2023-04-07T23:44:07.938Z,98673.56
2023-04-07T23:46:35.496Z,98670.91
2023-04-07T23:49:03.539Z,98669.41
2023-04-07T23:51:31.209Z,98665.59
2023-04-07T23:53:58.556Z,98668.55
2023-04-07T23:56:25.724Z,98669.29
2023-04-07T23:58:52.898Z,98665.52
